CDT,Max TemperatureF,Mean TemperatureF,Min TemperatureF,Max Dew PointF,MeanDew PointF,Min DewpointF,Max Humidity, Mean Humidity, Min Humidity, Max Sea Level PressureIn, Mean Sea Level PressureIn, Min Sea Level PressureIn, Max VisibilityMiles, Mean VisibilityMiles, Min VisibilityMiles, Max Wind SpeedMPH, Mean Wind SpeedMPH, Max Gust SpeedMPH,PrecipitationIn, CloudCover, Events, WindDirDegrees
2013-10-1,80,68,57,63,60,51,94,77,52,29.96,29.90,29.86,10,8,4,23,11,30,0.00,2,,221
2013-10-2,73,62,50,58,51,36,100,81,25,30.12,30.05,29.98,10,5,0,9,3,,0.01,0,Fog,45
2013-10-3,77,65,53,67,63,52,100,84,65,30.00,29.92,29.85,10,7,0,15,5,20,0.01,6,Fog-Rain,187
2013-10-4,72,68,64,66,63,62,100,88,73,30.01,29.96,29.90,10,7,2,15,6,,0.26,7,Rain-Thunderstorm,95
2013-10-5,81,71,62,70,65,62,100,90,69,29.97,29.86,29.74,10,4,0,22,5,28,1.55,7,Fog-Rain,168
2013-10-6,64,55,46,61,47,39,93,75,48,29.78,29.74,29.69,10,9,2,17,10,23,0.12,7,Rain,247
2013-10-7,66,56,43,47,44,41,97,73,40,30.10,29.89,29.74,10,10,4,15,9,24,0.00,4,Rain,276
2013-10-8,75,57,39,54,45,37,100,75,33,30.19,30.14,30.10,10,7,2,12,3,,0.01,0,,178
2013-10-9,70,58,45,48,46,43,96,69,39,30.26,30.21,30.16,10,10,6,13,6,,0.00,0,,166
2013-10-10,73,56,39,52,46,39,100,87,44,30.20,30.13,30.07,10,4,0,13,1,,0.00,1,Fog,106
2013-10-11,73,60,46,56,50,46,100,81,53,30.10,30.05,29.99,10,6,0,16,3,23,0.01,1,Fog,140
2013-10-12,71,58,44,63,54,40,94,76,63,30.18,30.01,29.96,10,8,2,14,8,,0.07,3,Rain,213
2013-10-13,63,50,37,43,38,35,97,74,37,30.43,30.35,30.19,10,9,2,12,3,17,0.00,0,,306
2013-10-14,61,47,35,47,41,34,97,76,53,30.43,30.35,30.16,10,9,2,16,5,23,0.01,3,,86
2013-10-15,63,56,48,61,53,42,94,85,72,30.14,29.87,29.75,10,6,1,14,9,23,0.15,5,Rain,192
2013-10-16,55,50,46,48,46,41,94,85,74,29.94,29.87,29.81,10,9,2,14,11,21,0.01,7,Rain,252
2013-10-17,52,46,41,48,45,39,94,89,82,29.92,29.86,29.81,10,7,2,14,3,,0.26,7,Rain,292
2013-10-18,50,44,39,43,38,35,89,79,66,29.96,29.90,29.83,10,9,5,16,7,24,0.00,5,,252
2013-10-19,54,45,37,39,36,30,89,72,46,29.92,29.83,29.77,10,10,9,23,8,28,0.00,4,,241
2013-10-20,54,44,35,45,39,33,93,78,53,29.88,29.81,29.74,10,9,3,15,6,,0.00,5,,221
2013-10-21,52,40,28,43,31,22,78,63,51,29.97,29.89,29.77,10,10,10,18,12,29,0.00,6,,269
2013-10-22,45,36,27,28,26,22,88,70,49,29.99,29.96,29.92,10,10,10,9,7,,0.00,2,,263
2013-10-23,46,37,30,27,25,21,85,63,40,30.02,29.98,29.93,10,10,10,14,7,17,0.00,4,,301
2013-10-24,44,34,27,27,25,21,79,65,45,30.30,30.16,30.01,10,10,10,13,8,20,0.00,5,,291
2013-10-25,52,38,24,29,24,20,85,57,38,30.40,30.25,29.97,10,10,10,22,9,32,0.00,1,,245
2013-10-26,55,46,37,34,28,25,70,49,39,30.07,29.93,29.82,10,10,10,25,17,36,0.00,4,,277
2013-10-27,55,41,28,31,28,24,89,62,38,30.07,30.02,29.96,10,10,10,17,6,24,0.00,0,,239
2013-10-28,48,44,39,39,35,29,85,71,63,30.41,30.29,30.06,10,10,10,15,9,22,0.00,6,,25
2013-10-29,51,45,39,43,38,33,100,84,71,30.40,30.27,30.17,10,7,1,12,6,,0.00,4,,78
2013-10-30,59,48,39,57,48,37,100,91,80,30.15,30.00,29.75,6,2,0,18,5,25,0.37,6,Fog-Rain,163
2013-10-31,64,56,46,61,57,41,94,91,83,29.74,29.46,29.21,10,5,1,18,7,28,0.47,8,Rain,213